sensor_id;sensor_type;location;lat;lon;timestamp;pressure;altitude;pressure_sealevel;temperature;humidity
39769;BME280;38939;47.824;14.642;2022-12-05T00:00:22;96442.38;;;9.15;63.10
39769;BME280;38939;47.824;14.642;2022-12-05T00:01:34;96450.00;;;9.10;63.54
39769;BME280;38939;47.824;14.642;2022-12-05T00:02:37;96450.03;;;9.03;64.19
39769;BME280;38939;47.824;14.642;2022-12-05T00:03:39;96445.81;;;9.02;63.09
39769;BME280;38939;47.824;14.642;2022-12-05T00:04:41;96453.59;;;9.02;64.18
39769;BME280;38939;47.824;14.642;2022-12-05T00:05:43;96451.19;;;9.00;64.17
39769;BME280;38939;47.824;14.642;2022-12-05T00:06:45;96450.59;;;8.98;64.15
39769;BME280;38939;47.824;14.642;2022-12-05T00:07:47;96445.63;;;8.97;63.93
39769;BME280;38939;47.824;14.642;2022-12-05T00:08:49;96458.22;;;8.93;64.62
39769;BME280;38939;47.824;14.642;2022-12-05T00:09:50;96453.22;;;8.92;63.65
39769;BME280;38939;47.824;14.642;2022-12-05T00:10:52;96460.25;;;8.91;64.00
39769;BME280;38939;47.824;14.642;2022-12-05T00:11:54;96450.81;;;8.90;64.01
39769;BME280;38939;47.824;14.642;2022-12-05T00:12:58;96457.44;;;8.93;63.27
39769;BME280;38939;47.824;14.642;2022-12-05T00:14:00;96453.03;;;8.93;63.76
39769;BME280;38939;47.824;14.642;2022-12-05T00:15:02;96459.44;;;8.91;64.08
39769;BME280;38939;47.824;14.642;2022-12-05T00:16:05;96451.03;;;8.89;64.16
39769;BME280;38939;47.824;14.642;2022-12-05T00:17:07;96440.63;;;8.89;63.76
39769;BME280;38939;47.824;14.642;2022-12-05T00:18:09;96453.41;;;8.90;63.74
39769;BME280;38939;47.824;14.642;2022-12-05T00:19:12;96450.81;;;8.90;63.02
39769;BME280;38939;47.824;14.642;2022-12-05T00:20:15;96455.03;;;8.91;63.63
39769;BME280;38939;47.824;14.642;2022-12-05T00:21:18;96450.44;;;8.87;63.28
39769;BME280;38939;47.824;14.642;2022-12-05T00:22:20;96453.84;;;8.87;63.82
39769;BME280;38939;47.824;14.642;2022-12-05T00:23:22;96459.03;;;8.87;63.96
39769;BME280;38939;47.824;14.642;2022-12-05T00:24:24;96461.03;;;8.85;64.03
39769;BME280;38939;47.824;14.642;2022-12-05T00:25:26;96454.22;;;8.84;64.01
39769;BME280;38939;47.824;14.642;2022-12-05T00:26:29;96463.81;;;8.90;62.83
39769;BME280;38939;47.824;14.642;2022-12-05T00:27:31;96455.44;;;8.95;63.78
39769;BME280;38939;47.824;14.642;2022-12-05T00:28:34;96461.63;;;8.94;63.94
39769;BME280;38939;47.824;14.642;2022-12-05T00:29:36;96462.25;;;8.89;63.92
39769;BME280;38939;47.824;14.642;2022-12-05T00:30:39;96455.84;;;8.85;64.58
39769;BME280;38939;47.824;14.642;2022-12-05T00:31:40;96447.44;;;8.83;63.95
39769;BME280;38939;47.824;14.642;2022-12-05T00:32:43;96455.03;;;8.85;63.36
39769;BME280;38939;47.824;14.642;2022-12-05T00:33:45;96450.22;;;8.88;63.31
39769;BME280;38939;47.824;14.642;2022-12-05T00:34:47;96449.22;;;8.89;63.31
39769;BME280;38939;47.824;14.642;2022-12-05T00:35:49;96453.22;;;8.92;62.47
39769;BME280;38939;47.824;14.642;2022-12-05T00:36:51;96452.00;;;8.94;63.50
39769;BME280;38939;47.824;14.642;2022-12-05T00:37:53;96457.22;;;8.94;62.49
39769;BME280;38939;47.824;14.642;2022-12-05T00:38:57;96451.63;;;8.97;62.52
39769;BME280;38939;47.824;14.642;2022-12-05T00:39:59;96464.44;;;8.99;62.48
39769;BME280;38939;47.824;14.642;2022-12-05T00:41:02;96467.84;;;8.99;62.69
39769;BME280;38939;47.824;14.642;2022-12-05T00:42:05;96460.41;;;8.96;62.54
39769;BME280;38939;47.824;14.642;2022-12-05T00:43:07;96467.84;;;8.99;62.47
39769;BME280;38939;47.824;14.642;2022-12-05T00:44:09;96478.63;;;8.96;63.41
39769;BME280;38939;47.824;14.642;2022-12-05T00:45:12;96467.03;;;8.92;62.72
39769;BME280;38939;47.824;14.642;2022-12-05T00:46:15;96475.44;;;8.94;63.01
39769;BME280;38939;47.824;14.642;2022-12-05T00:47:17;96477.44;;;8.92;63.49
39769;BME280;38939;47.824;14.642;2022-12-05T00:48:19;96472.84;;;8.88;63.08
39769;BME280;38939;47.824;14.642;2022-12-05T00:49:21;96488.25;;;8.89;63.30
39769;BME280;38939;47.824;14.642;2022-12-05T00:50:23;96486.66;;;8.88;63.73
39769;BME280;38939;47.824;14.642;2022-12-05T00:51:26;96483.84;;;8.83;63.08
39769;BME280;38939;47.824;14.642;2022-12-05T00:52:28;96486.25;;;8.85;63.46
39769;BME280;38939;47.824;14.642;2022-12-05T00:53:31;96484.66;;;8.84;63.61
39769;BME280;38939;47.824;14.642;2022-12-05T00:54:33;96490.66;;;8.84;63.06
39769;BME280;38939;47.824;14.642;2022-12-05T00:55:35;96487.06;;;8.85;63.50
39769;BME280;38939;47.824;14.642;2022-12-05T00:56:37;96489.66;;;8.78;64.22
39769;BME280;38939;47.824;14.642;2022-12-05T00:57:39;96486.84;;;8.73;64.12
39769;BME280;38939;47.824;14.642;2022-12-05T00:58:41;96491.06;;;8.68;64.39
39769;BME280;38939;47.824;14.642;2022-12-05T00:59:44;96503.66;;;8.57;64.61
39769;BME280;38939;47.824;14.642;2022-12-05T01:00:46;96491.81;;;8.48;65.20
39769;BME280;38939;47.824;14.642;2022-12-05T01:01:49;96495.44;;;8.47;64.98
39769;BME280;38939;47.824;14.642;2022-12-05T01:02:52;96494.66;;;8.53;64.30
39769;BME280;38939;47.824;14.642;2022-12-05T01:03:56;96485.88;;;8.54;63.96
39769;BME280;38939;47.824;14.642;2022-12-05T01:04:58;96494.66;;;8.53;64.83
39769;BME280;38939;47.824;14.642;2022-12-05T01:06:00;96497.03;;;8.48;65.27
39769;BME280;38939;47.824;14.642;2022-12-05T01:07:02;96504.81;;;8.48;65.29
39769;BME280;38939;47.824;14.642;2022-12-05T01:08:03;96510.63;;;8.44;65.96
39769;BME280;38939;47.824;14.642;2022-12-05T01:09:05;96504.38;;;8.38;65.26
39769;BME280;38939;47.824;14.642;2022-12-05T01:10:07;96508.97;;;8.36;65.56
39769;BME280;38939;47.824;14.642;2022-12-05T01:11:10;96506.59;;;8.34;65.57
39769;BME280;38939;47.824;14.642;2022-12-05T01:12:12;96508.38;;;8.34;66.23
39769;BME280;38939;47.824;14.642;2022-12-05T01:13:14;96511.38;;;8.31;65.95
39769;BME280;38939;47.824;14.642;2022-12-05T01:14:17;96515.38;;;8.27;65.88
39769;BME280;38939;47.824;14.642;2022-12-05T01:15:19;96517.38;;;8.25;67.00
39769;BME280;38939;47.824;14.642;2022-12-05T01:16:23;96510.78;;;8.22;66.25
39769;BME280;38939;47.824;14.642;2022-12-05T01:17:25;96515.16;;;8.21;66.71
39769;BME280;38939;47.824;14.642;2022-12-05T01:18:28;96518.53;;;8.15;66.93
39769;BME280;38939;47.824;14.642;2022-12-05T01:19:30;96522.72;;;8.10;66.88
39769;BME280;38939;47.824;14.642;2022-12-05T01:20:33;96519.31;;;8.02;67.11
39769;BME280;38939;47.824;14.642;2022-12-05T01:21:34;96523.72;;;8.02;67.46
39769;BME280;38939;47.824;14.642;2022-12-05T01:22:36;96527.28;;;8.01;67.57
39769;BME280;38939;47.824;14.642;2022-12-05T01:23:38;96529.28;;;7.99;67.77
39769;BME280;38939;47.824;14.642;2022-12-05T01:24:40;96534.88;;;7.96;68.28
39769;BME280;38939;47.824;14.642;2022-12-05T01:25:43;96532.28;;;7.96;68.07
39769;BME280;38939;47.824;14.642;2022-12-05T01:26:46;96528.47;;;7.92;68.50
39769;BME280;38939;47.824;14.642;2022-12-05T01:27:48;96527.25;;;7.88;68.29
39769;BME280;38939;47.824;14.642;2022-12-05T01:28:50;96532.41;;;7.81;68.84
39769;BME280;38939;47.824;14.642;2022-12-05T01:29:52;96533.59;;;7.78;69.18
39769;BME280;38939;47.824;14.642;2022-12-05T01:30:54;96542.75;;;7.74;69.34
39769;BME280;38939;47.824;14.642;2022-12-05T01:31:56;96538.38;;;7.75;69.23
39769;BME280;38939;47.824;14.642;2022-12-05T01:32:58;96544.34;;;7.75;69.45
39769;BME280;38939;47.824;14.642;2022-12-05T01:34:01;96548.16;;;7.73;69.38
39769;BME280;38939;47.824;14.642;2022-12-05T01:35:04;96547.34;;;7.72;69.66
39769;BME280;38939;47.824;14.642;2022-12-05T01:36:08;96551.34;;;7.75;69.07
39769;BME280;38939;47.824;14.642;2022-12-05T01:37:10;96543.38;;;7.76;69.51
39769;BME280;38939;47.824;14.642;2022-12-05T01:38:12;96547.56;;;7.77;69.45
39769;BME280;38939;47.824;14.642;2022-12-05T01:39:14;96546.19;;;7.81;69.02
39769;BME280;38939;47.824;14.642;2022-12-05T01:40:17;96550.22;;;7.84;69.35
39769;BME280;38939;47.824;14.642;2022-12-05T01:41:20;96548.59;;;7.83;69.19
39769;BME280;38939;47.824;14.642;2022-12-05T01:42:23;96557.19;;;7.84;69.00
39769;BME280;38939;47.824;14.642;2022-12-05T01:43:26;96553.59;;;7.85;69.39
39769;BME280;38939;47.824;14.642;2022-12-05T01:45:39;96561.56;;;7.83;69.13
39769;BME280;38939;47.824;14.642;2022-12-05T01:46:45;96558.38;;;7.81;69.28
39769;BME280;38939;47.824;14.642;2022-12-05T01:47:49;96562.16;;;7.78;69.41
39769;BME280;38939;47.824;14.642;2022-12-05T01:48:51;96563.13;;;7.77;69.14
39769;BME280;38939;47.824;14.642;2022-12-05T01:49:54;96559.94;;;7.75;68.79
39769;BME280;38939;47.824;14.642;2022-12-05T01:50:56;96555.16;;;7.72;69.25
39769;BME280;38939;47.824;14.642;2022-12-05T01:52:01;96554.53;;;7.70;69.79
39769;BME280;38939;47.824;14.642;2022-12-05T01:53:04;96549.31;;;7.64;69.72
39769;BME280;38939;47.824;14.642;2022-12-05T01:54:06;96554.69;;;7.62;69.88
39769;BME280;38939;47.824;14.642;2022-12-05T01:55:11;96552.88;;;7.63;70.19
39769;BME280;38939;47.824;14.642;2022-12-05T01:56:14;96545.88;;;7.56;70.21
39769;BME280;38939;47.824;14.642;2022-12-05T01:57:16;96554.25;;;7.52;69.76
39769;BME280;38939;47.824;14.642;2022-12-05T01:58:18;96559.00;;;7.48;70.03
39769;BME280;38939;47.824;14.642;2022-12-05T01:59:21;96554.56;;;7.42;70.81
39769;BME280;38939;47.824;14.642;2022-12-05T02:00:23;96548.59;;;7.41;70.79
39769;BME280;38939;47.824;14.642;2022-12-05T02:01:25;96552.94;;;7.41;70.76
39769;BME280;38939;47.824;14.642;2022-12-05T02:02:28;96548.78;;;7.40;70.95
39769;BME280;38939;47.824;14.642;2022-12-05T02:03:31;96552.56;;;7.37;70.69
39769;BME280;38939;47.824;14.642;2022-12-05T02:04:34;96549.34;;;7.35;70.36
39769;BME280;38939;47.824;14.642;2022-12-05T02:05:39;96556.53;;;7.33;70.84
39769;BME280;38939;47.824;14.642;2022-12-05T02:06:41;96550.09;;;7.29;71.38
39769;BME280;38939;47.824;14.642;2022-12-05T02:07:43;96546.28;;;7.25;71.28
39769;BME280;38939;47.824;14.642;2022-12-05T02:08:46;96557.47;;;7.26;70.41
39769;BME280;38939;47.824;14.642;2022-12-05T02:09:48;96557.66;;;7.24;70.80
39769;BME280;38939;47.824;14.642;2022-12-05T02:10:52;96561.59;;;7.20;71.09
39769;BME280;38939;47.824;14.642;2022-12-05T02:11:59;96560.00;;;7.19;71.00
39769;BME280;38939;47.824;14.642;2022-12-05T02:13:08;96558.41;;;7.18;70.91
39769;BME280;38939;47.824;14.642;2022-12-05T02:15:25;96563.94;;;7.15;71.72
39769;BME280;38939;47.824;14.642;2022-12-05T02:19:03;96575.69;;;7.11;71.42
39769;BME280;38939;47.824;14.642;2022-12-05T02:20:14;96573.31;;;7.09;70.91
39769;BME280;38939;47.824;14.642;2022-12-05T02:25:16;96578.94;;;6.91;72.21
39769;BME280;38939;47.824;14.642;2022-12-05T02:31:08;96581.78;;;6.75;72.63
39769;BME280;38939;47.824;14.642;2022-12-05T02:32:24;96591.34;;;6.74;72.24
39769;BME280;38939;47.824;14.642;2022-12-05T02:34:44;96584.56;;;6.73;72.67
39769;BME280;38939;47.824;14.642;2022-12-05T02:37:01;96583.94;;;6.71;72.24
39769;BME280;38939;47.824;14.642;2022-12-05T02:38:16;96581.91;;;6.67;72.31
39769;BME280;38939;47.824;14.642;2022-12-05T02:40:30;96584.19;;;6.55;72.84
39769;BME280;38939;47.824;14.642;2022-12-05T02:41:59;96584.97;;;6.55;72.96
39769;BME280;38939;47.824;14.642;2022-12-05T02:43:03;96597.50;;;6.52;73.65
39769;BME280;38939;47.824;14.642;2022-12-05T02:44:25;96578.91;;;6.48;73.57
39769;BME280;38939;47.824;14.642;2022-12-05T02:45:30;96585.72;;;6.49;73.46
39769;BME280;38939;47.824;14.642;2022-12-05T02:46:35;96577.94;;;6.49;74.06
39769;BME280;38939;47.824;14.642;2022-12-05T02:47:41;96586.06;;;6.46;74.06
39769;BME280;38939;47.824;14.642;2022-12-05T02:48:45;96589.22;;;6.41;73.46
39769;BME280;38939;47.824;14.642;2022-12-05T02:49:47;96585.56;;;6.36;73.77
39769;BME280;38939;47.824;14.642;2022-12-05T02:50:51;96586.75;;;6.33;74.33
39769;BME280;38939;47.824;14.642;2022-12-05T02:51:56;96585.16;;;6.32;73.82
39769;BME280;38939;47.824;14.642;2022-12-05T02:53:01;96594.69;;;6.32;73.45
39769;BME280;38939;47.824;14.642;2022-12-05T02:54:05;96597.50;;;6.30;73.91
39769;BME280;38939;47.824;14.642;2022-12-05T02:55:10;96596.66;;;6.30;73.91
39769;BME280;38939;47.824;14.642;2022-12-05T02:56:13;96594.44;;;6.27;74.05
39769;BME280;38939;47.824;14.642;2022-12-05T02:57:15;96597.41;;;6.24;74.41
39769;BME280;38939;47.824;14.642;2022-12-05T02:58:20;96596.78;;;6.21;73.92
39769;BME280;38939;47.824;14.642;2022-12-05T02:59:23;96601.34;;;6.19;74.35
39769;BME280;38939;47.824;14.642;2022-12-05T03:00:25;96606.06;;;6.16;73.90
39769;BME280;38939;47.824;14.642;2022-12-05T03:01:29;96605.28;;;6.15;74.80
39769;BME280;38939;47.824;14.642;2022-12-05T03:02:31;96604.03;;;6.11;75.07
39769;BME280;38939;47.824;14.642;2022-12-05T03:03:34;96608.59;;;6.09;74.63
39769;BME280;38939;47.824;14.642;2022-12-05T03:04:37;96616.19;;;6.11;74.29
39769;BME280;38939;47.824;14.642;2022-12-05T03:05:59;96617.97;;;6.10;74.20
39769;BME280;38939;47.824;14.642;2022-12-05T03:07:05;96610.38;;;6.09;74.69
39769;BME280;38939;47.824;14.642;2022-12-05T03:08:09;96613.75;;;6.09;74.77
39769;BME280;38939;47.824;14.642;2022-12-05T03:09:15;96618.16;;;6.09;74.43
39769;BME280;38939;47.824;14.642;2022-12-05T03:10:21;96620.91;;;6.07;74.13
39769;BME280;38939;47.824;14.642;2022-12-05T03:11:25;96622.72;;;6.07;74.46
39769;BME280;38939;47.824;14.642;2022-12-05T03:12:33;96619.50;;;6.05;74.05
39769;BME280;38939;47.824;14.642;2022-12-05T03:13:40;96626.63;;;6.03;74.69
39769;BME280;38939;47.824;14.642;2022-12-05T03:14:46;96621.19;;;5.97;75.46
39769;BME280;38939;47.824;14.642;2022-12-05T03:15:50;96625.75;;;5.95;75.13
39769;BME280;38939;47.824;14.642;2022-12-05T03:16:54;96626.56;;;5.96;74.32
39769;BME280;38939;47.824;14.642;2022-12-05T03:19:11;96633.50;;;5.95;74.56
39769;BME280;38939;47.824;14.642;2022-12-05T03:20:31;96631.44;;;5.91;75.11
39769;BME280;38939;47.824;14.642;2022-12-05T03:21:36;96639.38;;;5.89;74.86
39769;BME280;38939;47.824;14.642;2022-12-05T03:23:42;96644.72;;;5.88;74.71
39769;BME280;38939;47.824;14.642;2022-12-05T03:24:46;96649.91;;;5.88;75.08
39769;BME280;38939;47.824;14.642;2022-12-05T03:27:07;96655.91;;;5.88;75.19
39769;BME280;38939;47.824;14.642;2022-12-05T03:28:24;96659.28;;;5.89;75.58
39769;BME280;38939;47.824;14.642;2022-12-05T03:29:42;96663.84;;;5.87;75.94
39769;BME280;38939;47.824;14.642;2022-12-05T03:30:46;96668.56;;;5.83;75.81
39769;BME280;38939;47.824;14.642;2022-12-05T03:33:06;96672.31;;;5.80;76.32
39769;BME280;38939;47.824;14.642;2022-12-05T03:34:27;96670.91;;;5.78;76.23
39769;BME280;38939;47.824;14.642;2022-12-05T03:36:51;96684.47;;;5.80;76.45
39769;BME280;38939;47.824;14.642;2022-12-05T03:37:55;96676.88;;;5.78;75.62
39769;BME280;38939;47.824;14.642;2022-12-05T03:39:09;96675.06;;;5.79;76.21
39769;BME280;38939;47.824;14.642;2022-12-05T03:41:33;96676.88;;;5.78;75.85
39769;BME280;38939;47.824;14.642;2022-12-05T03:42:38;96673.66;;;5.76;76.05
39769;BME280;38939;47.824;14.642;2022-12-05T03:43:46;96684.00;;;5.76;76.31
39769;BME280;38939;47.824;14.642;2022-12-05T03:45:09;96685.97;;;5.74;76.16
39769;BME280;38939;47.824;14.642;2022-12-05T03:46:17;96683.72;;;5.71;76.20
39769;BME280;38939;47.824;14.642;2022-12-05T03:48:29;96680.34;;;5.71;76.38
39769;BME280;38939;47.824;14.642;2022-12-05T03:49:37;96681.13;;;5.71;75.65
39769;BME280;38939;47.824;14.642;2022-12-05T03:50:42;96687.31;;;5.70;76.20
39769;BME280;38939;47.824;14.642;2022-12-05T03:51:52;96685.69;;;5.69;75.94
39769;BME280;38939;47.824;14.642;2022-12-05T03:52:57;96693.00;;;5.66;75.74
39769;BME280;38939;47.824;14.642;2022-12-05T03:54:28;96690.59;;;5.64;75.80
39769;BME280;38939;47.824;14.642;2022-12-05T03:55:33;96687.22;;;5.64;75.78
39769;BME280;38939;47.824;14.642;2022-12-05T03:56:40;96684.00;;;5.61;75.98
39769;BME280;38939;47.824;14.642;2022-12-05T03:58:48;96687.72;;;5.59;75.41
39769;BME280;38939;47.824;14.642;2022-12-05T04:00:04;96685.94;;;5.59;75.90
39769;BME280;38939;47.824;14.642;2022-12-05T04:01:09;96689.69;;;5.57;75.81
39769;BME280;38939;47.824;14.642;2022-12-05T04:02:17;96690.66;;;5.56;75.76
39769;BME280;38939;47.824;14.642;2022-12-05T04:03:41;96697.81;;;5.54;75.68
39769;BME280;38939;47.824;14.642;2022-12-05T04:04:52;96694.59;;;5.52;75.33
39769;BME280;38939;47.824;14.642;2022-12-05T04:05:57;96695.91;;;5.48;75.73
39769;BME280;38939;47.824;14.642;2022-12-05T04:07:00;96687.06;;;5.42;75.75
39769;BME280;38939;47.824;14.642;2022-12-05T04:08:09;96689.03;;;5.40;75.66
39769;BME280;38939;47.824;14.642;2022-12-05T04:09:16;96689.19;;;5.38;75.36
39769;BME280;38939;47.824;14.642;2022-12-05T04:10:21;96690.19;;;5.37;75.55
39769;BME280;38939;47.824;14.642;2022-12-05T04:11:25;96690.97;;;5.38;75.84
39769;BME280;38939;47.824;14.642;2022-12-05T04:12:28;96692.78;;;5.37;75.66
39769;BME280;38939;47.824;14.642;2022-12-05T04:13:39;96696.31;;;5.36;75.71
39769;BME280;38939;47.824;14.642;2022-12-05T04:14:44;96687.81;;;5.28;76.29
39769;BME280;38939;47.824;14.642;2022-12-05T04:15:49;96692.22;;;5.19;76.28
39769;BME280;38939;47.824;14.642;2022-12-05T04:17:15;96690.34;;;5.13;76.36
39769;BME280;38939;47.824;14.642;2022-12-05T04:18:19;96695.72;;;5.11;76.60
39769;BME280;38939;47.824;14.642;2022-12-05T04:19:35;96686.50;;;5.09;77.08
39769;BME280;38939;47.824;14.642;2022-12-05T04:20:58;96692.34;;;5.03;77.17
39769;BME280;38939;47.824;14.642;2022-12-05T04:22:21;96687.00;;;5.04;76.89
39769;BME280;38939;47.824;14.642;2022-12-05T04:23:25;96692.03;;;5.06;76.34
39769;BME280;38939;47.824;14.642;2022-12-05T04:24:29;96690.41;;;5.05;76.68
39769;BME280;38939;47.824;14.642;2022-12-05T04:26:08;96692.03;;;5.06;76.47
39769;BME280;38939;47.824;14.642;2022-12-05T04:28:33;96695.25;;;5.08;76.07
39769;BME280;38939;47.824;14.642;2022-12-05T04:29:41;96702.84;;;5.09;75.84
39769;BME280;38939;47.824;14.642;2022-12-05T04:30:45;96702.00;;;5.09;75.88
39769;BME280;38939;47.824;14.642;2022-12-05T04:31:50;96697.03;;;5.07;75.81
39769;BME280;38939;47.824;14.642;2022-12-05T04:32:58;96703.53;;;5.03;76.09
39769;BME280;38939;47.824;14.642;2022-12-05T04:34:02;96702.75;;;4.94;76.13
39769;BME280;38939;47.824;14.642;2022-12-05T04:35:08;96698.25;;;4.88;76.52
39769;BME280;38939;47.824;14.642;2022-12-05T04:36:17;96701.84;;;4.87;76.65
39769;BME280;38939;47.824;14.642;2022-12-05T04:37:21;96699.41;;;4.86;76.50
39769;BME280;38939;47.824;14.642;2022-12-05T04:38:26;96704.41;;;4.87;76.59
39769;BME280;38939;47.824;14.642;2022-12-05T04:40:41;96700.38;;;4.85;77.10
39769;BME280;38939;47.824;14.642;2022-12-05T04:42:50;96704.84;;;4.68;77.25
39769;BME280;38939;47.824;14.642;2022-12-05T04:43:54;96696.44;;;4.66;77.38
39769;BME280;38939;47.824;14.642;2022-12-05T04:45:00;96707.13;;;4.63;77.48
39769;BME280;38939;47.824;14.642;2022-12-05T04:46:04;96704.19;;;4.66;77.55
39769;BME280;38939;47.824;14.642;2022-12-05T04:47:08;96707.09;;;4.71;77.51
39769;BME280;38939;47.824;14.642;2022-12-05T04:48:13;96707.72;;;4.73;77.37
39769;BME280;38939;47.824;14.642;2022-12-05T04:49:18;96704.16;;;4.74;77.15
39769;BME280;38939;47.824;14.642;2022-12-05T04:50:22;96707.38;;;4.76;77.19
39769;BME280;38939;47.824;14.642;2022-12-05T04:51:26;96708.19;;;4.76;77.13
39769;BME280;38939;47.824;14.642;2022-12-05T04:52:30;96715.13;;;4.76;76.86
39769;BME280;38939;47.824;14.642;2022-12-05T04:53:33;96707.72;;;4.73;77.56
39769;BME280;38939;47.824;14.642;2022-12-05T04:55:38;96718.88;;;4.73;77.69
39769;BME280;38939;47.824;14.642;2022-12-05T04:56:41;96714.50;;;4.74;77.82
39769;BME280;38939;47.824;14.642;2022-12-05T04:57:48;96718.56;;;4.68;77.82
39769;BME280;38939;47.824;14.642;2022-12-05T04:58:52;96727.78;;;4.71;78.05
39769;BME280;38939;47.824;14.642;2022-12-05T04:59:55;96731.00;;;4.73;77.75
39769;BME280;38939;47.824;14.642;2022-12-05T05:01:09;96730.16;;;4.72;77.40
39769;BME280;38939;47.824;14.642;2022-12-05T05:02:13;96731.47;;;4.68;77.78
39769;BME280;38939;47.824;14.642;2022-12-05T05:03:20;96734.56;;;4.64;77.92
39769;BME280;38939;47.824;14.642;2022-12-05T05:04:26;96731.34;;;4.61;78.03
39769;BME280;38939;47.824;14.642;2022-12-05T05:05:29;96726.19;;;4.61;78.16
39769;BME280;38939;47.824;14.642;2022-12-05T05:06:35;96730.41;;;4.63;78.27
39769;BME280;38939;47.824;14.642;2022-12-05T05:07:48;96732.00;;;4.64;78.36
39769;BME280;38939;47.824;14.642;2022-12-05T05:08:52;96729.41;;;4.64;78.26
39769;BME280;38939;47.824;14.642;2022-12-05T05:09:54;96730.41;;;4.63;78.18
39769;BME280;38939;47.824;14.642;2022-12-05T05:12:07;96737.31;;;4.62;78.12
39769;BME280;38939;47.824;14.642;2022-12-05T05:13:14;96737.97;;;4.64;78.18
39769;BME280;38939;47.824;14.642;2022-12-05T05:14:16;96737.78;;;4.66;78.57
39769;BME280;38939;47.824;14.642;2022-12-05T05:15:18;96734.25;;;4.67;78.11
39769;BME280;38939;47.824;14.642;2022-12-05T05:16:24;96736.84;;;4.67;78.18
39769;BME280;38939;47.824;14.642;2022-12-05T05:17:26;96740.53;;;4.64;78.20
39769;BME280;38939;47.824;14.642;2022-12-05T05:18:28;96746.53;;;4.65;78.20
39769;BME280;38939;47.824;14.642;2022-12-05T05:19:30;96744.91;;;4.64;77.82
39769;BME280;38939;47.824;14.642;2022-12-05T05:20:32;96744.91;;;4.64;77.66
39769;BME280;38939;47.824;14.642;2022-12-05T05:21:35;96748.47;;;4.63;78.20
39769;BME280;38939;47.824;14.642;2022-12-05T05:22:37;96743.63;;;4.59;78.11
39769;BME280;38939;47.824;14.642;2022-12-05T05:23:39;96748.81;;;4.59;78.04
39769;BME280;38939;47.824;14.642;2022-12-05T05:24:41;96747.19;;;4.58;77.91
39769;BME280;38939;47.824;14.642;2022-12-05T05:25:43;96751.56;;;4.58;78.22
39769;BME280;38939;47.824;14.642;2022-12-05T05:26:44;96756.88;;;4.56;78.36
39769;BME280;38939;47.824;14.642;2022-12-05T05:27:47;96748.31;;;4.56;78.32
39769;BME280;38939;47.824;14.642;2022-12-05T05:28:50;96751.91;;;4.55;78.19
39769;BME280;38939;47.824;14.642;2022-12-05T05:29:52;96750.28;;;4.54;77.80
39769;BME280;38939;47.824;14.642;2022-12-05T05:30:54;96747.06;;;4.52;77.86
39769;BME280;38939;47.824;14.642;2022-12-05T05:31:56;96751.41;;;4.51;77.62
39769;BME280;38939;47.824;14.642;2022-12-05T05:32:58;96752.22;;;4.52;77.78
39769;BME280;38939;47.824;14.642;2022-12-05T05:34:00;96743.66;;;4.51;77.43
39769;BME280;38939;47.824;14.642;2022-12-05T05:35:09;96749.78;;;4.50;77.23
39769;BME280;38939;47.824;14.642;2022-12-05T05:36:12;96753.69;;;4.46;77.52
39769;BME280;38939;47.824;14.642;2022-12-05T05:37:15;96755.63;;;4.44;77.30
39769;BME280;38939;47.824;14.642;2022-12-05T05:38:17;96756.63;;;4.43;77.45
39769;BME280;38939;47.824;14.642;2022-12-05T05:39:18;96761.16;;;4.41;77.16
39769;BME280;38939;47.824;14.642;2022-12-05T05:40:20;96750.34;;;4.37;77.36
39769;BME280;38939;47.824;14.642;2022-12-05T05:41:24;96768.56;;;4.36;77.64
39769;BME280;38939;47.824;14.642;2022-12-05T05:42:26;96765.34;;;4.34;77.46
39769;BME280;38939;47.824;14.642;2022-12-05T05:43:29;96767.94;;;4.34;77.30
39769;BME280;38939;47.824;14.642;2022-12-05T05:44:30;96764.41;;;4.35;77.41
39769;BME280;38939;47.824;14.642;2022-12-05T05:45:33;96760.53;;;4.31;77.38
39769;BME280;38939;47.824;14.642;2022-12-05T05:46:34;96764.72;;;4.24;77.62
39769;BME280;38939;47.824;14.642;2022-12-05T05:47:37;96761.53;;;4.13;77.76
39769;BME280;38939;47.824;14.642;2022-12-05T05:48:40;96756.53;;;4.12;78.07
39769;BME280;38939;47.824;14.642;2022-12-05T05:49:42;96762.53;;;4.04;78.20
39769;BME280;38939;47.824;14.642;2022-12-05T05:50:43;96758.84;;;3.90;78.56
39769;BME280;38939;47.824;14.642;2022-12-05T05:51:45;96757.56;;;3.86;78.51
39769;BME280;38939;47.824;14.642;2022-12-05T05:52:47;96757.38;;;3.79;78.84
39769;BME280;38939;47.824;14.642;2022-12-05T05:53:50;96758.03;;;3.73;78.81
39769;BME280;38939;47.824;14.642;2022-12-05T05:54:52;96754.97;;;3.70;79.34
39769;BME280;38939;47.824;14.642;2022-12-05T05:55:56;96758.03;;;3.73;78.96
39769;BME280;38939;47.824;14.642;2022-12-05T05:56:58;96762.06;;;3.76;79.06
39769;BME280;38939;47.824;14.642;2022-12-05T05:57:59;96769.31;;;3.80;79.13
39769;BME280;38939;47.824;14.642;2022-12-05T05:59:02;96768.97;;;3.84;78.65
39769;BME280;38939;47.824;14.642;2022-12-05T06:00:04;96769.81;;;3.84;78.90
39769;BME280;38939;47.824;14.642;2022-12-05T06:01:08;96769.97;;;3.83;78.99
39769;BME280;38939;47.824;14.642;2022-12-05T06:02:10;96774.16;;;3.84;79.12
39769;BME280;38939;47.824;14.642;2022-12-05T06:03:12;96768.19;;;3.83;78.87
39769;BME280;38939;47.824;14.642;2022-12-05T06:04:14;96773.34;;;3.83;78.85
39769;BME280;38939;47.824;14.642;2022-12-05T06:05:16;96776.25;;;3.80;79.07
39769;BME280;38939;47.824;14.642;2022-12-05T06:06:19;96771.56;;;3.75;78.98
39769;BME280;38939;47.824;14.642;2022-12-05T06:07:21;96774.16;;;3.67;78.63
39769;BME280;38939;47.824;14.642;2022-12-05T06:08:23;96779.66;;;3.64;79.25
39769;BME280;38939;47.824;14.642;2022-12-05T06:09:25;96775.94;;;3.58;79.12
39769;BME280;38939;47.824;14.642;2022-12-05T06:10:27;96785.13;;;3.61;78.85
39769;BME280;38939;47.824;14.642;2022-12-05T06:11:30;96787.53;;;3.63;79.08
39769;BME280;38939;47.824;14.642;2022-12-05T06:12:32;96784.00;;;3.64;79.10
39769;BME280;38939;47.824;14.642;2022-12-05T06:13:34;96783.81;;;3.65;78.77
39769;BME280;38939;47.824;14.642;2022-12-05T06:14:36;96788.84;;;3.67;78.89